地図

経路データ

SID SEASON NUMBER BASIN SUBBASIN NAME ISO_TIME NATURE LAT LON WMO_WIND WMO_PRES WMO_AGENCY TRACK_TYPE DIST2LAND LANDFALL IFLAG USA_AGENCY USA_ATCF_ID USA_LAT USA_LON USA_RECORD USA_STATUS USA_WIND USA_PRES USA_SSHS USA_R34_NE USA_R34_SE USA_R34_SW USA_R34_NW USA_R50_NE USA_R50_SE USA_R50_SW USA_R50_NW USA_R64_NE USA_R64_SE USA_R64_SW USA_R64_NW USA_POCI USA_ROCI USA_RMW USA_EYE TOKYO_LAT TOKYO_LON TOKYO_GRADE TOKYO_WIND TOKYO_PRES TOKYO_R50_DIR TOKYO_R50_LONG TOKYO_R50_SHORT TOKYO_R30_DIR TOKYO_R30_LONG TOKYO_R30_SHORT TOKYO_LAND CMA_LAT CMA_LON CMA_CAT CMA_WIND CMA_PRES HKO_LAT HKO_LON HKO_CAT HKO_WIND HKO_PRES NEWDELHI_LAT NEWDELHI_LON NEWDELHI_GRADE NEWDELHI_WIND NEWDELHI_PRES NEWDELHI_CI NEWDELHI_DP NEWDELHI_POCI REUNION_LAT REUNION_LON REUNION_TYPE REUNION_WIND REUNION_PRES REUNION_TNUM REUNION_CI REUNION_RMW REUNION_R34_NE REUNION_R34_SE REUNION_R34_SW REUNION_R34_NW REUNION_R50_NE REUNION_R50_SE REUNION_R50_SW REUNION_R50_NW REUNION_R64_NE REUNION_R64_SE REUNION_R64_SW REUNION_R64_NW BOM_LAT BOM_LON BOM_TYPE BOM_WIND BOM_PRES BOM_TNUM BOM_CI BOM_RMW BOM_R34_NE BOM_R34_SE BOM_R34_SW BOM_R34_NW BOM_R50_NE BOM_R50_SE BOM_R50_SW BOM_R50_NW BOM_R64_NE BOM_R64_SE BOM_R64_SW BOM_R64_NW BOM_ROCI BOM_POCI BOM_EYE BOM_POS_METHOD BOM_PRES_METHOD NADI_LAT NADI_LON NADI_CAT NADI_WIND NADI_PRES WELLINGTON_LAT WELLINGTON_LON WELLINGTON_WIND WELLINGTON_PRES DS824_LAT DS824_LON DS824_STAGE DS824_WIND DS824_PRES TD9636_LAT TD9636_LON TD9636_STAGE TD9636_WIND TD9636_PRES TD9635_LAT TD9635_LON TD9635_WIND TD9635_PRES TD9635_ROCI NEUMANN_LAT NEUMANN_LON NEUMANN_CLASS NEUMANN_WIND NEUMANN_PRES MLC_LAT MLC_LON MLC_CLASS MLC_WIND MLC_PRES USA_GUST BOM_GUST BOM_GUST_PER REUNION_GUST REUNION_GUST_PER USA_SEAHGT USA_SEARAD_NE USA_SEARAD_SE USA_SEARAD_SW USA_SEARAD_NW STORM_SPEED STORM_DIR
1928206N16130 1928 38 WP MM NOT_NAMED 1928-07-23 22:00:00 NR 16.3000 129.800 main 639 605 __________O___ -1 16.3000 129.800 7 12 280
1928206N16130 1928 38 WP MM NOT_NAMED 1928-07-24 00:00:00 NR 16.3657 129.403 main 605 554 __________P___ -1 16.3657 129.403 7 11 280
1928206N16130 1928 38 WP MM NOT_NAMED 1928-07-24 03:00:00 NR 16.4639 128.820 main 554 516 __________P___ -1 16.4639 128.820 7 11 280
1928206N16130 1928 38 WP MM NOT_NAMED 1928-07-24 06:00:00 NR 16.5630 128.264 main 516 473 __________P___ -1 16.5630 128.264 7 10 281
1928206N16130 1928 38 WP MM NOT_NAMED 1928-07-24 09:00:00 NR 16.6650 127.756 main 480 464 __________P___ -1 16.6650 127.756 7 10 282
1928206N16130 1928 38 WP MM NOT_NAMED 1928-07-24 10:00:00 NR 16.7000 127.600 main 464 449 __________O___ -1 16.7000 127.600 7 9 284
1928206N16130 1928 38 WP MM NOT_NAMED 1928-07-24 12:00:00 NR 16.7714 127.310 main 449 426 __________P___ -1 16.7714 127.310 7 8 286
1928206N16130 1928 38 WP MM NOT_NAMED 1928-07-24 15:00:00 NR 16.8792 126.926 main 427 414 __________P___ -1 16.8792 126.926 7 7 287
1928206N16130 1928 38 WP MM NOT_NAMED 1928-07-24 18:00:00 NR 16.9819 126.592 main 416 404 __________P___ -1 16.9819 126.592 7 6 288
1928206N16130 1928 38 WP MM NOT_NAMED 1928-07-24 21:00:00 NR 17.0732 126.293 main 404 393 __________P___ -1 17.0732 126.293 7 6 287
1928206N16130 1928 38 WP MM NOT_NAMED 1928-07-24 22:00:00 NR 17.1000 126.200 main 393 372 __________O___ -1 17.1000 126.200 7 6 286
1928206N16130 1928 38 WP MM NOT_NAMED 1928-07-25 00:00:00 NR 17.1471 126.016 main 372 351 __________P___ -1 17.1471 126.016 7 5 284
1928206N16130 1928 38 WP MM NOT_NAMED 1928-07-25 03:00:00 NR 17.2054 125.764 main 351 319 __________P___ -1 17.2054 125.764 7 5 283
1928206N16130 1928 38 WP MM NOT_NAMED 1928-07-25 06:00:00 NR 17.2517 125.527 main 320 299 __________P___ -1 17.2517 125.527 7 5 280
1928206N16130 1928 38 WP MM NOT_NAMED 1928-07-25 09:00:00 NR 17.2890 125.285 main 299 288 __________P___ -1 17.2890 125.285 7 5 279
1928206N16130 1928 38 WP MM NOT_NAMED 1928-07-25 10:00:00 NR 17.3000 125.200 main 288 267 __________O___ -1 17.3000 125.200 7 5 277
1928206N16130 1928 38 WP MM NOT_NAMED 1928-07-25 12:00:00 NR 17.3203 125.020 main 267 236 __________P___ -1 17.3203 125.020 7 5 276
1928206N16130 1928 38 WP MM NOT_NAMED 1928-07-25 15:00:00 NR 17.3474 124.731 main 236 206 __________P___ -1 17.3474 124.731 7 6 275
1928206N16130 1928 38 WP MM NOT_NAMED 1928-07-25 18:00:00 NR 17.3712 124.424 main 206 175 __________P___ -1 17.3712 124.424 7 6 274
1928206N16130 1928 38 WP MM NOT_NAMED 1928-07-25 21:00:00 NR 17.3930 124.107 main 175 165 __________P___ -1 17.3930 124.107 7 6 274
1928206N16130 1928 38 WP MM NOT_NAMED 1928-07-25 22:00:00 NR 17.4000 124.000 main 165 __________O___ -1 17.4000 124.000 7 6 274

デジタル台風データ・検索

IBTrACS Databaseについて

本データベースは、米国NOAAが公開する1842年以降の世界の熱帯低気圧のベストトラックデータアーカイブInternational Best Track Archive for Climate Stewardship (IBTrACS)を、ウェブで閲覧しやすい形式に変換したものです。

最終更新日:2021-12-06